createdAt,value
2023-03-13T00:01:33.789Z,5.73
2023-03-13T00:03:58.903Z,5.53
2023-03-13T00:06:22.999Z,5.72
2023-03-13T00:08:46.566Z,5.75
2023-03-13T00:11:12.668Z,5.64
2023-03-13T00:13:36.953Z,5.66
2023-03-13T00:16:04.500Z,5.59
2023-03-13T00:18:28.030Z,5.46
2023-03-13T00:21:00.301Z,5.66
2023-03-13T00:23:23.929Z,5.70
2023-03-13T00:25:47.427Z,5.72
2023-03-13T00:28:11.013Z,5.74
2023-03-13T00:30:34.667Z,5.89
2023-03-13T00:32:58.338Z,5.74
2023-03-13T00:35:22.064Z,5.89
2023-03-13T00:37:47.123Z,5.84
2023-03-13T00:40:12.708Z,5.85
2023-03-13T00:42:36.657Z,5.92
2023-03-13T00:45:00.185Z,5.95
2023-03-13T00:47:23.775Z,6.06
2023-03-13T00:49:47.298Z,5.83
2023-03-13T00:52:10.893Z,5.83
2023-03-13T00:54:35.843Z,6.07
2023-03-13T00:56:59.632Z,5.83
2023-03-13T00:59:23.184Z,5.95
2023-03-13T01:01:47.983Z,6.12
2023-03-13T01:04:13.430Z,6.04
2023-03-13T01:06:40.761Z,6.14
2023-03-13T01:09:07.350Z,6.15
2023-03-13T01:11:35.681Z,6.31
2023-03-13T01:14:01.084Z,6.19
2023-03-13T01:16:25.945Z,6.24
2023-03-13T01:18:52.655Z,6.34
2023-03-13T01:21:19.209Z,6.53
2023-03-13T01:23:42.791Z,6.52
2023-03-13T01:26:08.561Z,6.57
2023-03-13T01:28:33.710Z,6.52
2023-03-13T01:30:57.385Z,6.45
2023-03-13T01:33:21.270Z,6.58
2023-03-13T01:35:45.073Z,6.45
2023-03-13T01:38:10.286Z,6.47
2023-03-13T01:40:40.615Z,6.64
2023-03-13T01:43:26.691Z,6.52
2023-03-13T01:46:04.384Z,6.57
2023-03-13T01:48:43.206Z,6.66
2023-03-13T01:51:11.848Z,6.62
2023-03-13T01:53:38.619Z,6.67
2023-03-13T01:56:07.738Z,6.64
2023-03-13T01:58:32.175Z,6.81
2023-03-13T02:00:57.180Z,6.74
2023-03-13T02:03:22.533Z,6.91
2023-03-13T02:05:48.183Z,6.76
2023-03-13T02:08:19.048Z,6.94
2023-03-13T02:10:51.531Z,6.92
2023-03-13T02:13:17.813Z,6.84
2023-03-13T02:15:42.765Z,6.97
2023-03-13T02:18:08.061Z,7.05
2023-03-13T02:20:31.705Z,6.75
2023-03-13T02:23:03.268Z,6.93
2023-03-13T02:25:40.391Z,6.96
2023-03-13T02:28:09.739Z,6.83
2023-03-13T02:30:36.100Z,6.89
2023-03-13T02:33:01.258Z,6.80
2023-03-13T02:35:25.852Z,6.90
2023-03-13T02:37:56.042Z,6.87
2023-03-13T02:40:27.041Z,6.90
2023-03-13T02:42:56.285Z,6.66
2023-03-13T02:45:20.168Z,6.88
2023-03-13T02:47:44.576Z,6.88
2023-03-13T02:50:10.088Z,6.94
2023-03-13T02:52:39.130Z,7.04
2023-03-13T02:55:09.256Z,6.90
2023-03-13T02:57:34.016Z,7.08
2023-03-13T02:59:59.200Z,7.19
2023-03-13T03:02:22.964Z,7.04
2023-03-13T03:04:46.681Z,6.87
2023-03-13T03:07:10.252Z,7.02
2023-03-13T03:09:34.893Z,7.02
2023-03-13T03:12:03.314Z,7.06
2023-03-13T03:14:26.955Z,7.04
2023-03-13T03:16:52.147Z,7.19
2023-03-13T03:19:16.481Z,7.03
2023-03-13T03:21:40.549Z,7.19
2023-03-13T03:24:04.805Z,7.19
2023-03-13T03:26:28.496Z,7.32
2023-03-13T03:28:52.247Z,7.40
2023-03-13T03:31:17.227Z,7.43
2023-03-13T03:33:43.839Z,7.23
2023-03-13T03:36:12.247Z,7.45
2023-03-13T03:38:35.978Z,7.35
2023-03-13T03:40:59.498Z,7.25
2023-03-13T03:43:23.513Z,7.12
2023-03-13T03:45:47.301Z,7.36
2023-03-13T03:48:11.594Z,7.24
2023-03-13T03:50:36.844Z,7.39
2023-03-13T03:53:00.915Z,7.42
2023-03-13T03:55:24.511Z,7.25
2023-03-13T03:57:48.412Z,7.25
2023-03-13T04:00:20.262Z,7.17
2023-03-13T04:02:49.524Z,7.22
2023-03-13T04:05:13.129Z,7.33
2023-03-13T04:07:39.074Z,7.36
2023-03-13T04:10:02.691Z,7.32
2023-03-13T04:12:33.205Z,7.37
2023-03-13T04:14:56.853Z,7.40
2023-03-13T04:17:20.376Z,7.25
2023-03-13T04:19:44.057Z,7.10
2023-03-13T04:22:07.618Z,7.38
2023-03-13T04:24:32.697Z,7.24
2023-03-13T04:26:56.255Z,7.36
2023-03-13T04:29:19.831Z,7.37
2023-03-13T04:31:56.164Z,7.26
2023-03-13T04:34:35.890Z,7.22
2023-03-13T04:37:32.048Z,7.25
2023-03-13T04:40:17.176Z,7.35
2023-03-13T04:43:02.846Z,7.27
2023-03-13T04:45:45.158Z,7.25
2023-03-13T04:48:27.344Z,7.10
2023-03-13T04:51:01.910Z,6.99
2023-03-13T04:53:42.064Z,7.35
2023-03-13T04:56:43.582Z,7.40
2023-03-13T04:59:40.348Z,7.20
2023-03-13T05:02:16.251Z,7.37
2023-03-13T05:04:55.282Z,7.29
2023-03-13T05:07:37.730Z,7.33
2023-03-13T05:10:10.053Z,7.24
2023-03-13T05:12:53.383Z,7.13
2023-03-13T05:15:43.277Z,7.31
2023-03-13T05:18:25.636Z,7.36
2023-03-13T05:21:05.792Z,7.22
2023-03-13T05:23:47.971Z,7.39
2023-03-13T05:26:23.989Z,7.27
2023-03-13T05:29:12.270Z,7.25
2023-03-13T05:31:52.077Z,7.21
2023-03-13T05:34:34.143Z,7.29
2023-03-13T05:37:23.640Z,7.42
2023-03-13T05:39:55.626Z,7.13
2023-03-13T05:42:22.393Z,7.40
2023-03-13T05:44:57.987Z,7.40
2023-03-13T05:47:54.118Z,7.42
2023-03-13T05:50:56.357Z,7.42
2023-03-13T05:53:38.815Z,7.32
2023-03-13T05:56:34.892Z,7.47
2023-03-13T05:59:08.473Z,7.48
2023-03-13T06:01:53.704Z,7.60
2023-03-13T06:04:24.935Z,7.61
2023-03-13T06:06:49.205Z,7.37
2023-03-13T06:09:13.977Z,7.38
2023-03-13T06:11:37.766Z,7.63
2023-03-13T06:14:02.511Z,7.56
2023-03-13T06:16:32.457Z,7.81
2023-03-13T06:19:12.181Z,7.78
2023-03-13T06:21:35.833Z,7.75
2023-03-13T06:23:59.393Z,7.64
2023-03-13T06:26:24.442Z,7.66
2023-03-13T06:28:48.076Z,7.66
2023-03-13T06:31:12.216Z,7.55
2023-03-13T06:33:37.282Z,7.58
2023-03-13T06:36:04.288Z,7.57
2023-03-13T06:38:28.373Z,7.45
2023-03-13T06:40:52.031Z,7.71
2023-03-13T06:43:15.628Z,7.65
2023-03-13T06:45:39.236Z,7.72
2023-03-13T06:48:02.729Z,7.54
2023-03-13T06:50:26.437Z,7.69
2023-03-13T06:52:51.313Z,7.75
2023-03-13T06:55:15.094Z,7.66
2023-03-13T06:57:38.609Z,7.70
2023-03-13T07:00:02.294Z,7.80
2023-03-13T07:02:25.938Z,7.70
2023-03-13T07:04:49.525Z,7.60
2023-03-13T07:07:25.714Z,7.79
2023-03-13T07:09:56.032Z,7.81
2023-03-13T07:12:19.560Z,7.58
2023-03-13T07:14:43.133Z,7.68
2023-03-13T07:17:06.805Z,7.58
2023-03-13T07:19:30.688Z,7.85
2023-03-13T07:21:54.444Z,7.65
2023-03-13T07:24:18.143Z,7.67
2023-03-13T07:26:57.978Z,7.67
2023-03-13T07:29:26.825Z,7.64
2023-03-13T07:31:50.503Z,7.64
2023-03-13T07:34:14.155Z,7.87
2023-03-13T07:36:37.710Z,7.83
2023-03-13T07:39:01.291Z,7.93
2023-03-13T07:41:24.949Z,7.90
2023-03-13T07:43:49.963Z,7.83
2023-03-13T07:46:15.906Z,8.12
2023-03-13T07:48:41.456Z,8.01
2023-03-13T07:51:05.928Z,8.06
2023-03-13T07:53:30.784Z,8.19
2023-03-13T07:55:59.491Z,8.12
2023-03-13T07:58:24.033Z,8.07
2023-03-13T08:00:49.113Z,8.15
2023-03-13T08:03:12.751Z,8.19
2023-03-13T08:05:36.335Z,8.31
2023-03-13T08:08:00.176Z,8.38
2023-03-13T08:10:23.679Z,8.01
2023-03-13T08:12:47.280Z,8.05
2023-03-13T08:15:11.607Z,8.19
2023-03-13T08:17:36.633Z,8.30
2023-03-13T08:20:00.144Z,8.18
2023-03-13T08:22:23.749Z,8.25
2023-03-13T08:24:47.285Z,8.35
2023-03-13T08:27:10.857Z,8.22
2023-03-13T08:29:34.434Z,8.35
2023-03-13T08:31:58.043Z,8.24
2023-03-13T08:34:22.989Z,8.40
2023-03-13T08:36:46.650Z,8.20
2023-03-13T08:39:14.326Z,8.09
2023-03-13T08:41:40.652Z,8.24
2023-03-13T08:44:05.333Z,8.29
2023-03-13T08:46:31.616Z,8.41
2023-03-13T08:48:56.375Z,8.34
2023-03-13T08:51:24.108Z,8.51
2023-03-13T08:53:48.417Z,8.39
2023-03-13T08:56:14.276Z,8.36
2023-03-13T08:58:38.014Z,8.63
2023-03-13T09:01:04.592Z,8.53
2023-03-13T09:03:28.195Z,8.53
2023-03-13T09:05:56.237Z,8.68
2023-03-13T09:08:21.410Z,8.90
2023-03-13T09:10:44.987Z,8.93
2023-03-13T09:13:08.546Z,8.86
2023-03-13T09:15:32.201Z,8.92
2023-03-13T09:17:55.958Z,8.81
2023-03-13T09:20:19.837Z,9.03
2023-03-13T09:22:43.346Z,8.63
2023-03-13T09:25:09.644Z,8.94
2023-03-13T09:27:33.180Z,9.01
2023-03-13T09:29:56.806Z,8.81
2023-03-13T09:32:20.633Z,8.95
2023-03-13T09:34:44.310Z,9.02
2023-03-13T09:37:08.865Z,8.87
2023-03-13T09:39:32.454Z,9.17
2023-03-13T09:42:09.414Z,9.33
2023-03-13T09:44:39.720Z,9.15
2023-03-13T09:47:10.974Z,8.93
2023-03-13T09:49:39.490Z,9.03
2023-03-13T09:52:15.359Z,9.19
2023-03-13T09:54:43.252Z,9.04
2023-03-13T09:57:16.870Z,9.07
2023-03-13T09:59:49.054Z,9.15
2023-03-13T10:02:25.190Z,9.35
2023-03-13T10:04:53.581Z,9.20
2023-03-13T10:07:17.197Z,9.35
2023-03-13T10:09:42.419Z,9.36
2023-03-13T10:12:14.556Z,9.42
2023-03-13T10:14:46.781Z,9.29
2023-03-13T10:17:31.400Z,9.37
2023-03-13T10:20:01.155Z,9.62
2023-03-13T10:22:30.121Z,9.40
2023-03-13T10:25:00.378Z,9.41
2023-03-13T10:27:25.321Z,9.76
2023-03-13T10:29:49.056Z,9.74
2023-03-13T10:32:17.169Z,9.82
2023-03-13T10:34:53.570Z,9.84
2023-03-13T10:37:22.755Z,9.78
2023-03-13T10:39:46.296Z,9.81
2023-03-13T10:42:22.615Z,10.18
2023-03-13T10:44:47.739Z,10.20
2023-03-13T10:47:15.183Z,10.46
2023-03-13T10:49:50.497Z,10.66
2023-03-13T10:52:33.579Z,10.51
2023-03-13T10:55:02.589Z,10.62
2023-03-13T10:57:32.277Z,10.72
2023-03-13T10:59:58.589Z,10.94
2023-03-13T11:02:26.891Z,11.02
2023-03-13T11:04:53.903Z,11.33
2023-03-13T11:07:26.889Z,11.31
2023-03-13T11:10:00.554Z,11.23
2023-03-13T11:12:24.150Z,11.44
2023-03-13T11:14:48.076Z,11.87
2023-03-13T11:17:30.133Z,11.97
2023-03-13T11:20:06.970Z,11.90
2023-03-13T11:22:40.664Z,11.91
2023-03-13T11:25:17.779Z,11.93
2023-03-13T11:27:51.517Z,11.68
2023-03-13T11:30:40.198Z,11.80
2023-03-13T11:33:11.546Z,12.03
2023-03-13T11:35:41.775Z,11.93
2023-03-13T11:38:10.535Z,12.00
2023-03-13T11:40:41.157Z,12.07
2023-03-13T11:43:26.408Z,12.21
2023-03-13T11:46:12.296Z,12.09
2023-03-13T11:49:19.808Z,11.94
2023-03-13T11:52:02.097Z,12.17
2023-03-13T11:54:59.178Z,12.33
2023-03-13T11:57:30.902Z,12.32
2023-03-13T12:00:15.423Z,12.51
2023-03-13T12:02:44.500Z,12.56
2023-03-13T12:05:14.116Z,12.50
2023-03-13T12:07:43.911Z,12.67
2023-03-13T12:10:13.989Z,12.89
2023-03-13T12:12:44.437Z,12.96
2023-03-13T12:15:23.118Z,13.14
2023-03-13T12:17:53.459Z,12.63
2023-03-13T12:20:26.199Z,13.05
2023-03-13T12:22:59.723Z,13.16
2023-03-13T12:25:28.939Z,13.24
2023-03-13T12:27:56.422Z,13.18
2023-03-13T12:30:35.562Z,13.43
2023-03-13T12:33:07.998Z,13.22
2023-03-13T12:35:34.333Z,13.27
2023-03-13T12:38:06.805Z,13.25
2023-03-13T12:40:38.862Z,13.51
2023-03-13T12:43:11.839Z,13.42
2023-03-13T12:45:40.310Z,13.75
2023-03-13T12:48:27.384Z,13.68
2023-03-13T12:51:11.319Z,13.84
2023-03-13T12:54:13.744Z,13.95
2023-03-13T12:57:16.007Z,14.32
2023-03-13T12:59:42.634Z,14.22
2023-03-13T13:02:19.140Z,14.45
2023-03-13T13:04:47.191Z,14.67
2023-03-13T13:07:24.688Z,14.76
2023-03-13T13:10:05.898Z,14.74
2023-03-13T13:12:29.748Z,14.89
2023-03-13T13:15:20.131Z,14.85
2023-03-13T13:18:02.091Z,15.04
2023-03-13T13:20:46.172Z,14.89
2023-03-13T13:23:37.686Z,15.16
2023-03-13T13:26:50.077Z,15.08
2023-03-13T13:29:56.337Z,15.36
2023-03-13T13:32:30.585Z,15.15
2023-03-13T13:35:03.125Z,15.13
2023-03-13T13:37:29.948Z,15.43
2023-03-13T13:40:23.537Z,15.48
2023-03-13T13:42:56.001Z,15.56
2023-03-13T13:45:30.468Z,15.67
2023-03-13T13:48:35.882Z,15.49
2023-03-13T13:51:25.986Z,15.69
2023-03-13T13:53:53.082Z,15.80
2023-03-13T13:56:41.098Z,15.29
2023-03-13T13:59:25.330Z,15.57
2023-03-13T14:01:51.171Z,15.50
2023-03-13T14:04:23.964Z,15.79
2023-03-13T14:06:50.458Z,15.72
2023-03-13T14:09:25.413Z,15.49
2023-03-13T14:11:49.529Z,15.65
2023-03-13T14:14:17.836Z,15.83
2023-03-13T14:16:46.333Z,15.88
2023-03-13T14:19:24.333Z,15.85
2023-03-13T14:21:48.003Z,15.87
2023-03-13T14:24:15.747Z,15.92
2023-03-13T14:26:45.292Z,15.94
2023-03-13T14:29:08.913Z,16.02
2023-03-13T14:31:36.017Z,16.18
2023-03-13T14:34:04.713Z,15.89
2023-03-13T14:36:30.777Z,15.58
2023-03-13T14:38:57.655Z,15.97
2023-03-13T14:41:33.783Z,15.98
2023-03-13T14:44:06.063Z,15.84
2023-03-13T14:46:33.705Z,15.86
2023-03-13T14:48:57.979Z,15.97
2023-03-13T14:51:25.874Z,15.90
2023-03-13T14:53:59.211Z,15.91
2023-03-13T14:56:22.956Z,15.67
2023-03-13T14:58:48.681Z,15.51
2023-03-13T15:01:30.675Z,15.93
2023-03-13T15:03:54.406Z,15.81
2023-03-13T15:06:21.177Z,15.57
2023-03-13T15:08:46.831Z,15.50
2023-03-13T15:11:23.555Z,15.58
2023-03-13T15:13:47.260Z,15.65
2023-03-13T15:16:16.926Z,15.56
2023-03-13T15:18:40.639Z,15.49
2023-03-13T15:21:24.335Z,15.89
2023-03-13T15:23:52.362Z,15.53
2023-03-13T15:26:15.871Z,15.71
2023-03-13T15:28:40.902Z,15.75
2023-03-13T15:31:04.539Z,15.39
2023-03-13T15:33:30.606Z,15.63
2023-03-13T15:35:54.192Z,15.31
2023-03-13T15:38:20.277Z,15.20
2023-03-13T15:40:44.410Z,15.29
2023-03-13T15:43:08.409Z,15.47
2023-03-13T15:45:33.623Z,15.08
2023-03-13T15:47:57.417Z,15.09
2023-03-13T15:50:25.571Z,15.11
2023-03-13T15:52:50.283Z,15.30
2023-03-13T15:55:14.884Z,15.09
2023-03-13T15:57:44.129Z,15.12
2023-03-13T16:00:16.523Z,15.12
2023-03-13T16:02:41.560Z,14.80
2023-03-13T16:05:05.693Z,14.97
2023-03-13T16:07:29.284Z,14.86
2023-03-13T16:09:52.819Z,14.92
2023-03-13T16:12:16.631Z,14.59
2023-03-13T16:14:41.187Z,14.87
2023-03-13T16:17:13.469Z,14.95
2023-03-13T16:19:38.630Z,14.77
2023-03-13T16:22:02.178Z,14.66
2023-03-13T16:24:25.916Z,14.93
2023-03-13T16:26:49.505Z,15.08
2023-03-13T16:29:15.649Z,14.99
2023-03-13T16:31:39.347Z,14.89
2023-03-13T16:34:03.549Z,14.72
2023-03-13T16:36:32.176Z,14.84
2023-03-13T16:38:56.026Z,14.90
2023-03-13T16:41:21.988Z,14.99
2023-03-13T16:43:46.299Z,14.71
2023-03-13T16:46:16.356Z,14.81
2023-03-13T16:48:40.072Z,14.85
2023-03-13T16:51:05.254Z,14.88
2023-03-13T16:53:32.047Z,14.76
2023-03-13T16:55:55.825Z,14.64
2023-03-13T16:58:19.656Z,14.81
2023-03-13T17:00:46.880Z,14.89
2023-03-13T17:03:14.342Z,14.87
2023-03-13T17:05:37.932Z,14.70
2023-03-13T17:08:01.525Z,14.60
2023-03-13T17:10:28.661Z,14.73
2023-03-13T17:12:52.591Z,14.86
2023-03-13T17:15:16.542Z,14.57
2023-03-13T17:17:40.944Z,14.56
2023-03-13T17:20:06.596Z,14.50
2023-03-13T17:22:30.238Z,14.37
2023-03-13T17:24:53.769Z,14.48
2023-03-13T17:27:19.351Z,14.47
2023-03-13T17:29:43.706Z,14.60
2023-03-13T17:32:07.711Z,14.39
2023-03-13T17:34:31.355Z,14.42
2023-03-13T17:36:55.018Z,14.49
2023-03-13T17:39:18.679Z,14.32
2023-03-13T17:41:42.368Z,14.08
2023-03-13T17:44:08.505Z,14.13
2023-03-13T17:46:36.094Z,14.02
2023-03-13T17:48:59.716Z,14.09
2023-03-13T17:51:26.051Z,14.10
2023-03-13T17:53:50.812Z,14.15
2023-03-13T17:56:17.517Z,13.93
2023-03-13T17:58:41.088Z,14.15
2023-03-13T18:01:06.903Z,14.10
2023-03-13T18:03:30.464Z,14.10
2023-03-13T18:05:55.746Z,14.10
2023-03-13T18:08:19.265Z,13.91
2023-03-13T18:10:42.859Z,13.90
2023-03-13T18:13:06.387Z,13.95
2023-03-13T18:15:30.170Z,13.84
2023-03-13T18:17:55.764Z,13.90
2023-03-13T18:20:22.031Z,13.91
2023-03-13T18:22:45.629Z,13.69
2023-03-13T18:25:10.566Z,13.71
2023-03-13T18:27:34.111Z,13.92
2023-03-13T18:29:57.827Z,13.89
2023-03-13T18:32:21.444Z,13.89
2023-03-13T18:34:46.752Z,13.91
2023-03-13T18:37:23.358Z,13.78
2023-03-13T18:39:49.868Z,13.75
2023-03-13T18:42:13.459Z,13.73
2023-03-13T18:44:37.072Z,13.74
2023-03-13T18:47:00.750Z,13.55
2023-03-13T18:49:24.926Z,13.76
2023-03-13T18:51:50.126Z,13.81
2023-03-13T18:54:13.901Z,13.64
2023-03-13T18:56:38.214Z,13.54
2023-03-13T18:59:01.898Z,13.73
2023-03-13T19:01:27.607Z,13.66
2023-03-13T19:03:51.660Z,13.51
2023-03-13T19:06:27.303Z,13.56
2023-03-13T19:08:54.436Z,13.67
2023-03-13T19:11:19.964Z,13.58
2023-03-13T19:13:43.972Z,13.61
2023-03-13T19:16:16.986Z,13.68
2023-03-13T19:18:40.719Z,13.69
2023-03-13T19:21:04.278Z,13.72
2023-03-13T19:23:28.068Z,13.75
2023-03-13T19:25:53.489Z,13.69
2023-03-13T19:28:22.996Z,13.84
2023-03-13T19:30:47.678Z,13.64
2023-03-13T19:33:11.878Z,13.67
2023-03-13T19:35:35.525Z,13.78
2023-03-13T19:37:59.103Z,13.71
2023-03-13T19:40:28.474Z,13.70
2023-03-13T19:42:53.433Z,13.76
2023-03-13T19:45:19.757Z,13.77
2023-03-13T19:47:43.484Z,13.61
2023-03-13T19:50:08.431Z,13.62
2023-03-13T19:52:32.025Z,13.57
2023-03-13T19:54:55.926Z,13.77
2023-03-13T19:57:19.616Z,13.73
2023-03-13T19:59:44.609Z,13.56
2023-03-13T20:02:09.232Z,13.55
2023-03-13T20:04:33.206Z,13.53
2023-03-13T20:06:56.927Z,13.60
2023-03-13T20:09:21.490Z,13.75
2023-03-13T20:11:45.596Z,13.73
2023-03-13T20:14:09.648Z,13.58
2023-03-13T20:16:35.453Z,13.52
2023-03-13T20:19:00.644Z,13.54
2023-03-13T20:21:25.797Z,13.50
2023-03-13T20:23:51.396Z,13.58
2023-03-13T20:26:17.702Z,13.48
2023-03-13T20:28:43.511Z,13.30
2023-03-13T20:31:08.830Z,13.31
2023-03-13T20:33:34.720Z,13.22
2023-03-13T20:36:00.258Z,13.23
2023-03-13T20:38:23.994Z,13.25
2023-03-13T20:40:53.838Z,13.19
2023-03-13T20:43:17.357Z,13.10
2023-03-13T20:45:40.903Z,12.98
2023-03-13T20:48:04.720Z,13.19
2023-03-13T20:50:29.683Z,13.18
2023-03-13T20:52:53.247Z,12.94
2023-03-13T20:55:17.345Z,12.94
2023-03-13T20:57:40.876Z,12.86
2023-03-13T21:00:06.826Z,12.93
2023-03-13T21:02:30.390Z,12.89
2023-03-13T21:04:54.186Z,13.03
2023-03-13T21:07:19.306Z,12.82
2023-03-13T21:09:42.873Z,12.87
2023-03-13T21:12:06.981Z,13.06
2023-03-13T21:14:30.860Z,13.00
2023-03-13T21:16:54.579Z,12.75
2023-03-13T21:19:18.216Z,12.73
2023-03-13T21:21:41.827Z,12.70
2023-03-13T21:24:07.927Z,12.66
2023-03-13T21:26:32.353Z,12.89
2023-03-13T21:28:55.939Z,12.80
2023-03-13T21:31:22.203Z,12.75
2023-03-13T21:33:47.179Z,12.76
2023-03-13T21:36:11.724Z,12.59
2023-03-13T21:38:36.070Z,12.80
2023-03-13T21:41:01.111Z,12.79
2023-03-13T21:43:28.026Z,12.88
2023-03-13T21:45:51.576Z,12.81
2023-03-13T21:48:15.139Z,12.66
2023-03-13T21:50:38.728Z,12.82
2023-03-13T21:53:02.358Z,12.83
2023-03-13T21:55:26.073Z,12.52
2023-03-13T21:57:51.152Z,12.68
2023-03-13T22:00:16.100Z,12.56
2023-03-13T22:02:39.667Z,12.75
2023-03-13T22:05:03.387Z,12.53
2023-03-13T22:07:27.013Z,12.44
2023-03-13T22:09:50.596Z,12.64
2023-03-13T22:12:14.208Z,12.53
2023-03-13T22:14:39.372Z,12.60
2023-03-13T22:17:02.898Z,12.65
2023-03-13T22:19:26.554Z,12.49
2023-03-13T22:21:50.097Z,12.54
2023-03-13T22:24:14.163Z,12.65
2023-03-13T22:26:37.724Z,12.51
2023-03-13T22:29:01.344Z,12.43
2023-03-13T22:31:26.304Z,12.29
2023-03-13T22:33:49.908Z,12.46
2023-03-13T22:36:13.606Z,12.50
2023-03-13T22:38:39.043Z,12.55
2023-03-13T22:41:04.393Z,12.41
2023-03-13T22:43:28.168Z,12.57
2023-03-13T22:45:51.781Z,12.51
2023-03-13T22:48:16.761Z,12.56
2023-03-13T22:50:40.379Z,12.41
2023-03-13T22:53:04.396Z,12.45
2023-03-13T22:55:28.110Z,12.48
2023-03-13T22:57:51.861Z,12.32
2023-03-13T23:00:17.085Z,12.36
2023-03-13T23:02:40.610Z,12.51
2023-03-13T23:05:06.321Z,12.36
2023-03-13T23:07:32.289Z,12.34
2023-03-13T23:09:56.324Z,12.34
2023-03-13T23:12:21.208Z,12.29
2023-03-13T23:14:44.728Z,12.44
2023-03-13T23:17:08.359Z,12.33
2023-03-13T23:19:35.530Z,12.25
2023-03-13T23:22:00.514Z,12.38
2023-03-13T23:24:24.060Z,12.28
2023-03-13T23:26:47.614Z,12.35
2023-03-13T23:29:11.210Z,12.41
2023-03-13T23:31:34.950Z,12.32
2023-03-13T23:33:59.124Z,12.25
2023-03-13T23:36:22.859Z,12.12
2023-03-13T23:38:51.508Z,12.16
2023-03-13T23:41:16.279Z,12.11
2023-03-13T23:43:40.355Z,12.10
2023-03-13T23:46:04.615Z,12.03
2023-03-13T23:48:28.236Z,11.96
2023-03-13T23:50:51.873Z,12.20
2023-03-13T23:53:15.446Z,12.05
2023-03-13T23:55:40.445Z,12.22
2023-03-13T23:58:04.030Z,12.09
